Terminal Aerodrome Forecast
Issued by NWS

Home | Current Version | Previous Version | Text Only | Print | Product List | Glossary On
Versions: 1 2 3 4 5 6 7 8 9 10 11 12 13 14
000
FTUS42 KTBW 050537
TAFRSW
TAF
KRSW 050537Z 0506/0606 05007KT P6SM SCT050 BKN250
     FM051400 09013G20KT P6SM SCT030 BKN050
     FM051700 09013G20KT P6SM VCSH SCT030 BKN050
     FM060100 07008KT P6SM SCT050 BKN250=

USA.gov is the U.S. government's official web portal to all federal, state and local government web resources and services.